createdAt,value
2019-06-08T00:00:47.372Z,1.60
2019-06-08T00:03:16.696Z,1.40
2019-06-08T00:05:45.307Z,1.00
2019-06-08T00:08:14.814Z,1.20
2019-06-08T00:10:43.558Z,1.40
2019-06-08T00:13:13.121Z,1.13
2019-06-08T00:15:41.747Z,1.47
2019-06-08T00:18:10.347Z,0.90
2019-06-08T00:20:38.911Z,1.20
2019-06-08T00:23:07.452Z,0.93
2019-06-08T00:25:36.027Z,1.20
2019-06-08T00:28:04.740Z,0.90
2019-06-08T00:30:33.449Z,1.00
2019-06-08T00:33:02.006Z,0.97
2019-06-08T00:35:30.607Z,0.90
2019-06-08T00:37:59.223Z,1.00
2019-06-08T00:40:27.701Z,0.80
2019-06-08T00:42:56.247Z,0.80
2019-06-08T00:45:25.703Z,1.30
2019-06-08T00:47:54.424Z,1.20
2019-06-08T00:50:23.116Z,0.90
2019-06-08T00:52:51.659Z,1.00
2019-06-08T00:55:21.692Z,1.07
2019-06-08T00:57:50.503Z,1.30
2019-06-08T01:00:20.398Z,1.03
2019-06-08T01:02:49.315Z,1.10
2019-06-08T01:05:17.949Z,0.90
2019-06-08T01:07:46.567Z,0.80
2019-06-08T01:10:16.234Z,0.90
2019-06-08T01:12:44.874Z,1.00
2019-06-08T01:15:13.844Z,1.10
2019-06-08T01:17:42.405Z,0.93
2019-06-08T01:20:11.098Z,1.00
2019-06-08T01:22:39.784Z,0.70
2019-06-08T01:25:08.672Z,0.93
2019-06-08T01:27:37.230Z,0.70
2019-06-08T01:30:11.327Z,1.00
2019-06-08T01:32:39.951Z,0.87
2019-06-08T01:35:08.751Z,1.27
2019-06-08T01:37:37.359Z,0.87
2019-06-08T01:40:10.524Z,1.03
2019-06-08T01:42:39.059Z,0.60
2019-06-08T01:45:08.052Z,0.90
2019-06-08T01:47:36.738Z,0.67
2019-06-08T01:50:06.864Z,0.83
2019-06-08T01:52:35.826Z,1.00
2019-06-08T01:55:06.411Z,0.70
2019-06-08T01:57:35.010Z,1.20
2019-06-08T02:00:29.457Z,1.10
2019-06-08T02:02:38.631Z,0.60
2019-06-08T02:05:08.139Z,0.80
2019-06-08T02:07:36.740Z,0.90
2019-06-08T02:10:09.615Z,0.90
2019-06-08T02:12:38.155Z,0.90
2019-06-08T02:15:08.387Z,0.80
2019-06-08T02:17:36.990Z,0.70
2019-06-08T02:20:06.675Z,0.73
2019-06-08T02:22:35.376Z,0.87
2019-06-08T02:25:05.364Z,1.00
2019-06-08T02:27:33.987Z,0.80
2019-06-08T02:30:02.688Z,0.70
2019-06-08T02:32:32.763Z,0.80
2019-06-08T02:35:01.500Z,0.83
2019-06-08T02:37:30.835Z,0.90
2019-06-08T02:39:59.544Z,1.10
2019-06-08T02:42:28.907Z,0.80
2019-06-08T02:44:58.454Z,1.20
2019-06-08T02:47:28.408Z,0.90
2019-06-08T02:49:57.267Z,0.70
2019-06-08T02:52:25.931Z,0.80
2019-06-08T02:54:55.631Z,0.90
2019-06-08T02:57:29.055Z,0.93
2019-06-08T02:59:59.855Z,1.00
2019-06-08T03:02:31.510Z,1.00
2019-06-08T03:05:02.911Z,1.00
2019-06-08T03:07:34.487Z,0.80
2019-06-08T03:10:04.665Z,1.13
2019-06-08T03:12:37.535Z,0.90
2019-06-08T03:15:08.747Z,1.03
2019-06-08T03:17:37.816Z,0.80
2019-06-08T03:20:07.414Z,0.80
2019-06-08T03:22:37.114Z,0.63
2019-06-08T03:25:06.864Z,1.10
2019-06-08T03:27:37.303Z,0.67
2019-06-08T03:30:15.959Z,1.07
2019-06-08T03:32:42.118Z,0.70
2019-06-08T03:35:07.677Z,0.73
2019-06-08T03:37:37.782Z,0.70
2019-06-08T03:40:07.024Z,1.00
2019-06-08T03:42:35.644Z,0.80
2019-06-08T03:45:06.825Z,0.70
2019-06-08T03:47:37.070Z,0.80
2019-06-08T03:50:06.409Z,0.67
2019-06-08T03:52:35.450Z,0.70
2019-06-08T03:55:07.794Z,0.60
2019-06-08T03:57:38.059Z,0.80
2019-06-08T04:00:13.222Z,0.77
2019-06-08T04:02:40.403Z,1.10
2019-06-08T04:05:10.074Z,0.60
2019-06-08T04:07:39.885Z,0.70
2019-06-08T04:10:08.619Z,1.17
2019-06-08T04:12:37.801Z,1.03
2019-06-08T04:15:07.402Z,1.13
2019-06-08T04:17:37.814Z,0.80
2019-06-08T04:20:11.479Z,0.70
2019-06-08T04:22:42.145Z,0.60
2019-06-08T04:25:10.969Z,0.70
2019-06-08T04:27:40.432Z,0.60
2019-06-08T04:30:09.705Z,0.93
2019-06-08T04:32:38.572Z,0.90
2019-06-08T04:35:08.020Z,1.30
2019-06-08T04:37:38.181Z,0.63
2019-06-08T04:40:08.233Z,0.70
2019-06-08T04:42:36.927Z,0.90
2019-06-08T04:45:07.732Z,0.97
2019-06-08T04:47:36.355Z,1.17
2019-06-08T04:50:21.951Z,1.07
2019-06-08T04:52:38.889Z,0.90
2019-06-08T04:55:08.853Z,0.80
2019-06-08T04:57:39.366Z,0.70
2019-06-08T05:00:12.563Z,0.80
2019-06-08T05:02:41.505Z,0.83
2019-06-08T05:05:10.125Z,0.77
2019-06-08T05:07:39.251Z,0.70
2019-06-08T05:10:08.738Z,0.90
2019-06-08T05:12:39.064Z,0.80
2019-06-08T05:15:08.779Z,0.80
2019-06-08T05:17:39.140Z,0.90
2019-06-08T05:20:08.119Z,0.80
2019-06-08T05:22:36.740Z,0.80
2019-06-08T05:25:05.862Z,0.83
2019-06-08T05:27:34.406Z,0.70
2019-06-08T05:30:08.303Z,0.93
2019-06-08T05:32:33.229Z,0.90
2019-06-08T05:35:01.827Z,0.90
2019-06-08T05:37:30.373Z,0.87
2019-06-08T05:39:58.928Z,0.70
2019-06-08T05:42:27.458Z,0.90
2019-06-08T05:44:56.091Z,1.10
2019-06-08T05:47:24.635Z,0.87
2019-06-08T05:49:53.261Z,1.10
2019-06-08T05:52:21.801Z,0.90
2019-06-08T05:54:50.364Z,0.83
2019-06-08T05:57:18.904Z,0.83
2019-06-08T05:59:48.149Z,0.90
2019-06-08T06:02:16.794Z,1.00
2019-06-08T06:04:46.394Z,1.10
2019-06-08T06:07:14.982Z,0.93
2019-06-08T06:09:45.128Z,0.87
2019-06-08T06:12:13.836Z,0.70
2019-06-08T06:14:42.803Z,1.00
2019-06-08T06:17:11.917Z,1.13
2019-06-08T06:19:41.047Z,0.77
2019-06-08T06:22:09.739Z,1.00
2019-06-08T06:24:38.288Z,0.70
2019-06-08T06:27:06.962Z,0.80
2019-06-08T06:29:35.655Z,1.17
2019-06-08T06:32:04.365Z,0.90
2019-06-08T06:34:33.000Z,1.10
2019-06-08T06:37:01.676Z,0.70
2019-06-08T06:39:30.305Z,0.80
2019-06-08T06:41:58.907Z,0.73
2019-06-08T06:44:27.478Z,0.83
2019-06-08T06:46:56.089Z,0.73
2019-06-08T06:49:26.175Z,1.00
2019-06-08T06:51:54.723Z,0.80
2019-06-08T06:54:23.361Z,0.80
2019-06-08T06:56:51.981Z,0.70
2019-06-08T06:59:20.607Z,1.10
2019-06-08T07:01:52.736Z,1.20
2019-06-08T07:04:19.427Z,1.30
2019-06-08T07:06:48.139Z,0.90
2019-06-08T07:09:16.750Z,0.80
2019-06-08T07:11:45.306Z,0.67
2019-06-08T07:14:13.863Z,0.70
2019-06-08T07:16:42.411Z,0.80
2019-06-08T07:19:11.095Z,1.07
2019-06-08T07:21:42.047Z,1.00
2019-06-08T07:24:10.044Z,0.80
2019-06-08T07:26:38.722Z,0.70
2019-06-08T07:29:07.776Z,0.80
2019-06-08T07:31:36.315Z,0.93
2019-06-08T07:34:05.007Z,0.87
2019-06-08T07:36:33.616Z,1.67
2019-06-08T07:39:02.228Z,0.77
2019-06-08T07:41:30.858Z,0.70
2019-06-08T07:43:59.397Z,0.80
2019-06-08T07:46:27.964Z,1.20
2019-06-08T07:48:56.699Z,1.07
2019-06-08T07:51:25.463Z,1.13
2019-06-08T07:53:54.064Z,0.80
2019-06-08T07:56:22.633Z,0.87
2019-06-08T07:58:51.555Z,1.00
2019-06-08T08:01:35.782Z,1.10
2019-06-08T08:03:54.158Z,0.83
2019-06-08T08:06:22.973Z,0.93
2019-06-08T08:08:52.630Z,0.90
2019-06-08T08:11:21.264Z,1.00
2019-06-08T08:13:51.426Z,1.17
2019-06-08T08:16:20.015Z,1.23
2019-06-08T08:18:49.047Z,0.90
2019-06-08T08:21:23.191Z,1.03
2019-06-08T08:23:50.090Z,1.00
2019-06-08T08:26:18.069Z,0.90
2019-06-08T08:28:49.982Z,1.00
2019-06-08T08:31:18.554Z,1.27
2019-06-08T08:33:49.768Z,1.40
2019-06-08T08:36:18.063Z,0.90
2019-06-08T08:38:47.917Z,1.13
2019-06-08T08:41:18.221Z,1.50
2019-06-08T08:43:48.526Z,1.10
2019-06-08T08:46:17.290Z,1.20
2019-06-08T08:48:48.481Z,1.00
2019-06-08T08:51:17.897Z,1.10
2019-06-08T08:53:48.195Z,1.03
2019-06-08T08:56:18.087Z,0.93
2019-06-08T08:58:47.819Z,0.80
2019-06-08T09:01:20.289Z,1.43
2019-06-08T09:03:48.273Z,1.23
2019-06-08T09:06:18.134Z,0.83
2019-06-08T09:08:48.531Z,0.93
2019-06-08T09:11:17.708Z,0.93
2019-06-08T09:13:48.709Z,0.90
2019-06-08T09:16:17.687Z,0.83
2019-06-08T09:18:48.010Z,1.00
2019-06-08T09:21:18.662Z,1.03
2019-06-08T09:23:48.581Z,1.00
2019-06-08T09:26:17.750Z,0.90
2019-06-08T09:28:46.463Z,0.90
2019-06-08T09:31:18.695Z,1.00
2019-06-08T09:33:53.243Z,0.90
2019-06-08T09:36:17.834Z,0.80
2019-06-08T09:38:47.938Z,1.30
2019-06-08T09:41:18.551Z,1.50
2019-06-08T09:43:48.739Z,1.20
2019-06-08T09:46:17.966Z,1.10
2019-06-08T09:48:48.670Z,1.07
2019-06-08T09:51:18.637Z,1.00
2019-06-08T09:53:47.639Z,1.10
2019-06-08T09:56:18.541Z,1.20
2019-06-08T09:58:48.800Z,0.80
2019-06-08T10:01:18.491Z,1.10
2019-06-08T10:03:48.225Z,0.97
2019-06-08T10:06:18.308Z,1.10
2019-06-08T10:08:48.032Z,1.53
2019-06-08T10:11:16.893Z,1.07
2019-06-08T10:13:47.655Z,1.20
2019-06-08T10:16:18.380Z,1.00
2019-06-08T10:18:51.093Z,0.90
2019-06-08T10:21:18.346Z,0.83
2019-06-08T10:23:48.366Z,0.80
2019-06-08T10:26:17.816Z,1.30
2019-06-08T10:28:48.213Z,0.80
2019-06-08T10:31:17.557Z,1.30
2019-06-08T10:33:48.169Z,1.17
2019-06-08T10:36:18.260Z,1.53
2019-06-08T10:38:47.965Z,0.90
2019-06-08T10:41:21.073Z,0.90
2019-06-08T10:43:48.213Z,1.80
2019-06-08T10:46:20.756Z,1.50
2019-06-08T10:48:48.630Z,1.10
2019-06-08T10:51:18.371Z,1.00
2019-06-08T10:53:52.615Z,1.10
2019-06-08T10:56:18.821Z,1.03
2019-06-08T10:58:49.707Z,1.00
2019-06-08T11:01:18.801Z,0.93
2019-06-08T11:03:48.893Z,1.10
2019-06-08T11:06:18.725Z,1.20
2019-06-08T11:08:47.661Z,1.10
2019-06-08T11:11:19.463Z,0.83
2019-06-08T11:13:50.218Z,1.50
2019-06-08T11:16:17.946Z,0.90
2019-06-08T11:18:50.495Z,1.17
2019-06-08T11:21:18.782Z,1.17
2019-06-08T11:24:04.498Z,1.03
2019-06-08T11:26:23.890Z,1.10
2019-06-08T11:28:51.260Z,1.10
2019-06-08T11:31:19.866Z,1.00
2019-06-08T11:33:49.134Z,1.23
2019-06-08T11:36:18.836Z,1.00
2019-06-08T11:38:47.915Z,1.30
2019-06-08T11:41:18.993Z,1.27
2019-06-08T11:43:46.944Z,1.20
2019-06-08T11:46:18.235Z,1.30
2019-06-08T11:48:48.374Z,1.27
2019-06-08T11:51:15.900Z,1.00
2019-06-08T11:53:44.438Z,1.07
2019-06-08T11:56:13.554Z,0.97
2019-06-08T11:58:43.691Z,0.80
2019-06-08T12:01:14.904Z,1.47
2019-06-08T12:03:42.443Z,1.33
2019-06-08T12:06:14.113Z,1.00
2019-06-08T12:08:41.413Z,0.90
2019-06-08T12:11:16.501Z,1.10
2019-06-08T12:13:40.611Z,1.43
2019-06-08T12:16:14.936Z,0.87
2019-06-08T12:18:40.387Z,1.10
2019-06-08T12:21:11.259Z,0.90
2019-06-08T12:23:39.317Z,0.80
2019-06-08T12:26:08.251Z,0.70
2019-06-08T12:28:38.191Z,1.00
2019-06-08T12:31:13.145Z,0.80
2019-06-08T12:33:39.087Z,0.70
2019-06-08T12:36:09.115Z,0.90
2019-06-08T12:38:38.076Z,1.13
2019-06-08T12:41:09.176Z,0.87
2019-06-08T12:43:38.536Z,1.20
2019-06-08T12:46:10.607Z,1.20
2019-06-08T12:48:38.494Z,1.13
2019-06-08T12:51:09.987Z,1.20
2019-06-08T12:53:38.162Z,0.87
2019-06-08T12:56:10.331Z,1.50
2019-06-08T12:58:38.646Z,1.30
2019-06-08T13:01:09.431Z,1.30
2019-06-08T13:03:38.336Z,0.80
2019-06-08T13:06:07.905Z,1.00
2019-06-08T13:08:37.332Z,1.73
2019-06-08T13:11:09.029Z,1.40
2019-06-08T13:13:37.768Z,1.60
2019-06-08T13:16:06.451Z,1.10
2019-06-08T13:18:34.976Z,1.20
2019-06-08T13:21:18.712Z,1.30
2019-06-08T13:23:33.790Z,1.20
2019-06-08T13:26:02.416Z,1.20
2019-06-08T13:28:31.087Z,1.33
2019-06-08T13:30:59.654Z,1.30
2019-06-08T13:33:28.290Z,1.20
2019-06-08T13:35:58.060Z,1.30
2019-06-08T13:38:27.795Z,1.40
2019-06-08T13:40:58.600Z,1.70
2019-06-08T13:43:26.793Z,1.57
2019-06-08T13:45:58.107Z,1.77
2019-06-08T13:48:25.674Z,1.60
2019-06-08T13:50:54.591Z,1.70
2019-06-08T13:53:28.485Z,1.23
2019-06-08T13:55:56.742Z,1.30
2019-06-08T13:58:32.158Z,1.10
2019-06-08T14:00:56.767Z,1.13
2019-06-08T14:03:24.439Z,1.27
2019-06-08T14:05:52.965Z,1.43
2019-06-08T14:08:22.904Z,1.10
2019-06-08T14:10:51.771Z,1.60
2019-06-08T14:13:26.765Z,2.00
2019-06-08T14:15:50.508Z,1.27
2019-06-08T14:18:25.826Z,1.23
2019-06-08T14:20:49.323Z,1.37
2019-06-08T14:23:21.071Z,1.73
2019-06-08T14:25:56.498Z,1.47
2019-06-08T14:28:20.794Z,1.33
2019-06-08T14:30:48.611Z,0.90
2019-06-08T14:33:23.007Z,2.10
2019-06-08T14:35:47.551Z,1.33
2019-06-08T14:38:19.899Z,1.43
2019-06-08T14:40:47.469Z,1.20
2019-06-08T14:43:17.743Z,1.27
2019-06-08T14:45:46.456Z,1.20
2019-06-08T14:48:18.653Z,1.60
2019-06-08T14:50:48.005Z,1.20
2019-06-08T14:53:18.453Z,1.10
2019-06-08T14:55:49.979Z,1.20
2019-06-08T14:58:18.638Z,1.00
2019-06-08T15:00:47.950Z,1.40
2019-06-08T15:03:18.061Z,1.27
2019-06-08T15:05:49.448Z,1.60
2019-06-08T15:08:17.551Z,1.40
2019-06-08T15:10:49.617Z,1.20
2019-06-08T15:13:18.884Z,1.53
2019-06-08T15:15:46.862Z,1.70
2019-06-08T15:18:15.387Z,1.73
2019-06-08T15:20:44.024Z,1.40
2019-06-08T15:23:12.625Z,1.57
2019-06-08T15:25:41.264Z,1.53
2019-06-08T15:28:09.936Z,1.53
2019-06-08T15:30:38.603Z,1.20
2019-06-08T15:33:07.139Z,1.60
2019-06-08T15:35:37.749Z,1.27
2019-06-08T15:38:08.132Z,1.50
2019-06-08T15:40:37.879Z,1.60
2019-06-08T15:43:08.612Z,1.60
2019-06-08T15:45:36.994Z,1.40
2019-06-08T15:48:07.746Z,1.50
2019-06-08T15:50:37.800Z,1.40
2019-06-08T15:53:08.453Z,1.40
2019-06-08T15:55:38.198Z,1.63
2019-06-08T15:58:08.843Z,1.60
2019-06-08T16:00:36.919Z,1.63
2019-06-08T16:03:05.454Z,1.37
2019-06-08T16:05:34.015Z,2.20
2019-06-08T16:08:02.615Z,1.60
2019-06-08T16:10:32.319Z,1.77
2019-06-08T16:13:00.993Z,1.20
2019-06-08T16:15:30.897Z,1.43
2019-06-08T16:17:59.612Z,1.63
2019-06-08T16:20:29.403Z,1.20
2019-06-08T16:22:58.210Z,1.53
2019-06-08T16:25:27.805Z,1.37
2019-06-08T16:27:56.439Z,1.20
2019-06-08T16:30:24.997Z,1.20
2019-06-08T16:32:53.606Z,1.60
2019-06-08T16:35:22.248Z,1.77
2019-06-08T16:37:50.789Z,1.30
2019-06-08T16:40:19.338Z,1.20
2019-06-08T16:42:47.943Z,1.80
2019-06-08T16:45:18.120Z,1.50
2019-06-08T16:47:46.667Z,1.60
2019-06-08T16:50:23.916Z,1.63
2019-06-08T16:52:45.544Z,1.13
2019-06-08T16:55:14.227Z,1.60
2019-06-08T16:57:42.789Z,1.00
2019-06-08T17:00:30.597Z,1.70
2019-06-08T17:02:42.383Z,1.33
2019-06-08T17:05:11.155Z,1.30
2019-06-08T17:07:39.982Z,1.43
2019-06-08T17:10:08.667Z,1.70
2019-06-08T17:12:37.229Z,1.30
2019-06-08T17:15:06.665Z,1.50
2019-06-08T17:17:36.571Z,1.50
2019-06-08T17:20:06.731Z,1.30
2019-06-08T17:22:36.739Z,1.53
2019-06-08T17:25:08.803Z,1.50
2019-06-08T17:27:37.360Z,1.10
2019-06-08T17:30:10.129Z,1.60
2019-06-08T17:32:40.485Z,1.47
2019-06-08T17:35:09.307Z,1.20
2019-06-08T17:37:38.157Z,1.47
2019-06-08T17:40:07.108Z,1.47
2019-06-08T17:42:35.725Z,1.03
2019-06-08T17:45:07.091Z,1.23
2019-06-08T17:47:36.360Z,1.40
2019-06-08T17:50:08.168Z,1.70
2019-06-08T17:52:37.087Z,2.23
2019-06-08T17:55:08.444Z,3.40
2019-06-08T17:57:44.706Z,1.70
2019-06-08T18:00:09.886Z,1.30
2019-06-08T18:02:42.018Z,1.63
2019-06-08T18:05:09.664Z,2.10
2019-06-08T18:07:40.186Z,1.37
2019-06-08T18:10:09.116Z,1.00
2019-06-08T18:12:41.175Z,1.50
2019-06-08T18:15:08.609Z,2.43
2019-06-08T18:17:40.825Z,1.47
2019-06-08T18:20:17.805Z,1.77
2019-06-08T18:22:49.022Z,1.17
2019-06-08T18:25:17.450Z,1.40
2019-06-08T18:28:02.637Z,1.63
2019-06-08T18:30:18.971Z,1.50
2019-06-08T18:32:48.527Z,1.20
2019-06-08T18:35:18.282Z,1.40
2019-06-08T18:37:48.683Z,1.53
2019-06-08T18:40:19.061Z,1.60
2019-06-08T18:42:48.840Z,1.60
2019-06-08T18:45:18.530Z,1.03
2019-06-08T18:47:48.485Z,1.50
2019-06-08T18:50:17.434Z,1.60
2019-06-08T18:52:49.027Z,1.57
2019-06-08T18:55:18.336Z,1.60
2019-06-08T18:57:48.945Z,1.50
2019-06-08T19:00:18.520Z,1.53
2019-06-08T19:02:50.061Z,1.27
2019-06-08T19:05:18.169Z,2.00
2019-06-08T19:07:50.229Z,1.50
2019-06-08T19:10:32.824Z,1.23
2019-06-08T19:13:01.452Z,1.30
2019-06-08T19:15:38.832Z,1.50
2019-06-08T19:18:07.959Z,1.17
2019-06-08T19:20:37.404Z,1.63
2019-06-08T19:23:09.105Z,2.17
2019-06-08T19:25:42.122Z,1.80
2019-06-08T19:28:07.817Z,1.57
2019-06-08T19:30:39.469Z,1.43
2019-06-08T19:33:07.361Z,1.20
2019-06-08T19:35:36.070Z,1.37
2019-06-08T19:38:04.700Z,1.47
2019-06-08T19:40:33.845Z,1.47
2019-06-08T19:43:02.391Z,1.47
2019-06-08T19:45:30.932Z,1.47
2019-06-08T19:47:59.485Z,1.43
2019-06-08T19:50:28.875Z,1.57
2019-06-08T19:52:58.156Z,1.60
2019-06-08T19:55:26.846Z,1.30
2019-06-08T19:57:57.523Z,1.60
2019-06-08T20:00:28.254Z,1.60
2019-06-08T20:02:58.044Z,1.27
2019-06-08T20:05:28.504Z,1.30
2019-06-08T20:07:57.446Z,1.77
2019-06-08T20:10:27.964Z,1.47
2019-06-08T20:12:57.732Z,1.50
2019-06-08T20:15:26.632Z,1.50
2019-06-08T20:17:57.248Z,1.60
2019-06-08T20:20:27.698Z,1.00
2019-06-08T20:22:55.583Z,1.30
2019-06-08T20:25:24.137Z,1.40
2019-06-08T20:27:53.719Z,1.40
2019-06-08T20:30:22.456Z,1.30
2019-06-08T20:32:52.411Z,1.40
2019-06-08T20:35:21.203Z,1.37
2019-06-08T20:37:50.032Z,1.60
2019-06-08T20:40:18.816Z,1.47
2019-06-08T20:42:49.635Z,2.00
2019-06-08T20:45:17.751Z,1.67
2019-06-08T20:47:49.426Z,1.60
2019-06-08T20:50:17.598Z,1.80
2019-06-08T20:52:47.225Z,2.37
2019-06-08T20:55:17.512Z,1.73
2019-06-08T20:57:49.057Z,2.03
2019-06-08T21:00:16.826Z,1.80
2019-06-08T21:02:46.345Z,1.60
2019-06-08T21:05:18.076Z,1.53
2019-06-08T21:07:48.871Z,1.40
2019-06-08T21:10:17.502Z,1.40
2019-06-08T21:12:49.597Z,1.60
2019-06-08T21:15:17.770Z,1.50
2019-06-08T21:17:49.119Z,1.57
2019-06-08T21:20:17.706Z,1.70
2019-06-08T21:22:50.046Z,1.50
2019-06-08T21:25:17.622Z,1.60
2019-06-08T21:27:48.531Z,1.20
2019-06-08T21:30:23.808Z,1.30
2019-06-08T21:32:50.326Z,1.60
2019-06-08T21:35:18.412Z,1.67
2019-06-08T21:37:50.687Z,1.30
2019-06-08T21:40:17.640Z,1.43
2019-06-08T21:42:48.831Z,1.90
2019-06-08T21:45:18.943Z,1.80
2019-06-08T21:47:48.437Z,1.93
2019-06-08T21:50:18.646Z,1.47
2019-06-08T21:52:48.946Z,1.80
2019-06-08T21:55:17.847Z,1.60
2019-06-08T21:57:49.550Z,1.67
2019-06-08T22:00:35.856Z,1.83
2019-06-08T22:02:49.568Z,2.10
2019-06-08T22:05:18.388Z,2.20
2019-06-08T22:07:47.215Z,1.87
2019-06-08T22:10:17.812Z,1.73
2019-06-08T22:12:48.323Z,1.60
2019-06-08T22:15:18.262Z,1.80
2019-06-08T22:17:47.608Z,1.80
2019-06-08T22:20:18.687Z,1.70
2019-06-08T22:22:47.330Z,2.07
2019-06-08T22:25:17.594Z,1.80
2019-06-08T22:27:46.280Z,1.87
2019-06-08T22:30:32.430Z,1.60
2019-06-08T22:32:47.420Z,1.90
2019-06-08T22:35:16.236Z,1.90
2019-06-08T22:37:44.792Z,2.03
2019-06-08T22:40:17.412Z,2.30
2019-06-08T22:42:48.059Z,2.30
2019-06-08T22:45:17.669Z,1.90
2019-06-08T22:47:47.767Z,2.00
2019-06-08T22:50:18.542Z,1.97
2019-06-08T22:52:47.727Z,2.20
2019-06-08T22:55:18.572Z,2.70
2019-06-08T22:57:47.947Z,2.50
2019-06-08T23:00:20.689Z,2.10
2019-06-08T23:02:48.552Z,1.93
2019-06-08T23:05:18.538Z,2.00
2019-06-08T23:07:48.845Z,1.60
2019-06-08T23:10:17.686Z,2.27
2019-06-08T23:12:47.187Z,1.93
2019-06-08T23:15:18.143Z,2.20
2019-06-08T23:17:47.922Z,2.57
2019-06-08T23:20:18.582Z,2.27
2019-06-08T23:22:47.565Z,1.90
2019-06-08T23:25:18.220Z,2.27
2019-06-08T23:27:48.387Z,2.17
2019-06-08T23:30:18.425Z,1.97
2019-06-08T23:32:47.996Z,1.80
2019-06-08T23:35:18.197Z,2.30
2019-06-08T23:37:47.857Z,2.20
2019-06-08T23:40:17.897Z,2.50
2019-06-08T23:42:47.642Z,1.87
2019-06-08T23:45:17.663Z,2.30
2019-06-08T23:47:48.107Z,2.57
2019-06-08T23:50:17.768Z,1.70
2019-06-08T23:52:47.720Z,1.63
2019-06-08T23:55:18.171Z,2.67
2019-06-08T23:57:46.869Z,2.70
